createdAt,value
2022-10-09T00:00:34.257Z,98938.31
2022-10-09T00:02:37.490Z,98940.13
2022-10-09T00:04:40.668Z,98937.59
2022-10-09T00:06:43.919Z,98938.47
2022-10-09T00:08:47.162Z,98942.00
2022-10-09T00:10:50.171Z,98932.31
2022-10-09T00:12:53.246Z,98929.72
2022-10-09T00:14:57.703Z,98935.78
2022-10-09T00:17:00.739Z,98929.78
2022-10-09T00:19:03.993Z,98928.28
2022-10-09T00:21:07.357Z,98926.59
2022-10-09T00:23:10.773Z,98926.66
2022-10-09T00:25:13.796Z,98924.31
2022-10-09T00:27:17.095Z,98930.50
2022-10-09T00:29:20.243Z,98921.91
2022-10-09T00:31:25.040Z,98923.75
2022-10-09T00:33:28.131Z,98925.66
2022-10-09T00:35:31.100Z,98926.75
2022-10-09T00:37:34.114Z,98919.03
2022-10-09T00:39:37.553Z,98913.97
2022-10-09T00:41:41.161Z,98915.63
2022-10-09T00:43:46.611Z,98915.78
2022-10-09T00:45:51.530Z,98913.31
2022-10-09T00:47:58.407Z,98911.44
2022-10-09T00:50:06.734Z,98916.66
2022-10-09T00:52:09.782Z,98919.59
2022-10-09T00:54:15.101Z,98916.16
2022-10-09T00:56:18.134Z,98914.44
2022-10-09T00:58:21.392Z,98912.00
2022-10-09T01:00:25.049Z,98908.72
2022-10-09T01:02:28.328Z,98912.31
2022-10-09T01:04:33.356Z,98904.50
2022-10-09T01:06:45.007Z,98906.44
2022-10-09T01:08:52.563Z,98907.34
2022-10-09T01:11:00.960Z,98901.31
2022-10-09T01:13:08.617Z,98908.19
2022-10-09T01:15:18.498Z,98900.53
2022-10-09T01:17:26.707Z,98897.09
2022-10-09T01:20:04.588Z,98895.41
2022-10-09T01:22:17.325Z,98889.34
2022-10-09T01:24:26.943Z,98884.31
2022-10-09T01:27:12.176Z,98886.16
2022-10-09T01:29:16.094Z,98887.91
2022-10-09T01:31:20.572Z,98892.34
2022-10-09T01:33:24.107Z,98884.78
2022-10-09T01:35:28.363Z,98892.56
2022-10-09T01:37:31.999Z,98883.88
2022-10-09T01:39:36.524Z,98883.78
2022-10-09T01:41:40.205Z,98881.09
2022-10-09T01:43:45.053Z,98882.00
2022-10-09T01:45:49.340Z,98875.28
2022-10-09T01:47:53.217Z,98866.03
2022-10-09T01:50:00.858Z,98868.72
2022-10-09T01:52:08.429Z,98869.03
2022-10-09T01:54:14.585Z,98870.94
2022-10-09T01:56:22.214Z,98863.22
2022-10-09T01:58:30.836Z,98862.28
2022-10-09T02:00:38.221Z,98864.94
2022-10-09T02:02:43.072Z,98858.16
2022-10-09T02:04:46.724Z,98854.25
2022-10-09T02:06:50.431Z,98854.63
2022-10-09T02:08:55.238Z,98847.06
2022-10-09T02:10:59.822Z,98847.81
2022-10-09T02:13:03.548Z,98847.59
2022-10-09T02:15:08.439Z,98845.78
2022-10-09T02:17:17.088Z,98846.59
2022-10-09T02:19:24.753Z,98845.69
2022-10-09T02:21:34.155Z,98846.59
2022-10-09T02:23:38.269Z,98841.47
2022-10-09T02:25:42.717Z,98839.78
2022-10-09T02:27:46.494Z,98843.16
2022-10-09T02:29:50.375Z,98837.97
2022-10-09T02:31:54.069Z,98831.06
2022-10-09T02:33:59.601Z,98839.78
2022-10-09T02:36:02.996Z,98839.72
2022-10-09T02:38:06.574Z,98832.91
2022-10-09T02:40:11.236Z,98837.19
2022-10-09T02:42:14.751Z,98829.53
2022-10-09T02:44:18.193Z,98830.47
2022-10-09T02:46:22.134Z,98827.28
2022-10-09T02:48:25.524Z,98822.53
2022-10-09T02:50:30.263Z,98825.28
2022-10-09T02:52:33.760Z,98827.94
2022-10-09T02:54:36.822Z,98821.66
2022-10-09T02:56:39.759Z,98827.00
2022-10-09T02:58:42.829Z,98831.53
2022-10-09T03:00:49.282Z,98829.22
2022-10-09T03:02:52.908Z,98826.84
2022-10-09T03:04:56.151Z,98823.28
2022-10-09T03:07:00.543Z,98827.47
2022-10-09T03:09:03.794Z,98825.81
2022-10-09T03:11:06.876Z,98830.94
2022-10-09T03:13:10.381Z,98826.78
2022-10-09T03:15:14.104Z,98829.69
2022-10-09T03:17:17.144Z,98824.41
2022-10-09T03:19:20.160Z,98824.56
2022-10-09T03:21:24.665Z,98819.28
2022-10-09T03:23:28.963Z,98828.69
2022-10-09T03:25:31.957Z,98820.97
2022-10-09T03:27:34.959Z,98819.22
2022-10-09T03:29:37.984Z,98820.97
2022-10-09T03:31:51.725Z,98824.47
2022-10-09T03:33:55.664Z,98821.88
2022-10-09T03:35:58.623Z,98819.28
2022-10-09T03:38:01.561Z,98820.25
2022-10-09T03:40:06.851Z,98822.03
2022-10-09T03:42:09.863Z,98824.56
2022-10-09T03:44:12.900Z,98821.13
2022-10-09T03:46:15.886Z,98817.75
2022-10-09T03:48:18.924Z,98819.44
2022-10-09T03:50:21.915Z,98816.84
2022-10-09T03:52:25.230Z,98825.47
2022-10-09T03:54:28.299Z,98816.91
2022-10-09T03:56:32.657Z,98816.84
2022-10-09T03:58:35.700Z,98815.22
2022-10-09T04:00:38.876Z,98819.66
2022-10-09T04:02:42.163Z,98820.53
2022-10-09T04:04:45.156Z,98815.41
2022-10-09T04:06:48.311Z,98825.59
2022-10-09T04:08:51.235Z,98826.63
2022-10-09T04:10:57.844Z,98832.56
2022-10-09T04:13:02.224Z,98831.38
2022-10-09T04:15:05.813Z,98820.97
2022-10-09T04:17:08.864Z,98826.84
2022-10-09T04:19:12.182Z,98826.78
2022-10-09T04:21:15.238Z,98830.13
2022-10-09T04:23:18.625Z,98830.00
2022-10-09T04:25:21.745Z,98829.91
2022-10-09T04:27:24.743Z,98827.25
2022-10-09T04:29:29.136Z,98821.13
2022-10-09T04:31:32.282Z,98829.69
2022-10-09T04:33:35.319Z,98832.28
2022-10-09T04:35:42.822Z,98826.34
2022-10-09T04:37:46.087Z,98824.63
2022-10-09T04:39:49.069Z,98836.72
2022-10-09T04:41:52.156Z,98830.63
2022-10-09T04:43:55.907Z,98828.19
2022-10-09T04:46:00.536Z,98817.28
2022-10-09T04:48:03.542Z,98824.03
2022-10-09T04:50:07.698Z,98816.66
2022-10-09T04:52:10.618Z,98819.56
2022-10-09T04:54:13.809Z,98821.25
2022-10-09T04:56:19.304Z,98817.78
2022-10-09T04:58:22.265Z,98822.84
2022-10-09T05:00:25.243Z,98827.06
2022-10-09T05:02:29.583Z,98819.34
2022-10-09T05:04:32.782Z,98824.47
2022-10-09T05:06:35.916Z,98820.81
2022-10-09T05:08:39.538Z,98815.53
2022-10-09T05:10:42.590Z,98818.13
2022-10-09T05:12:45.903Z,98814.81
2022-10-09T05:14:49.032Z,98819.94
2022-10-09T05:17:12.407Z,98826.91
2022-10-09T05:19:17.235Z,98829.50
2022-10-09T05:21:20.864Z,98830.34
2022-10-09T05:23:23.862Z,98826.91
2022-10-09T05:25:26.865Z,98836.63
2022-10-09T05:27:29.883Z,98822.78
2022-10-09T05:29:32.874Z,98823.72
2022-10-09T05:31:35.951Z,98826.22
2022-10-09T05:33:38.922Z,98826.31
2022-10-09T05:35:51.355Z,98814.22
2022-10-09T05:37:54.499Z,98817.66
2022-10-09T05:39:57.482Z,98825.38
2022-10-09T05:42:00.442Z,98823.56
2022-10-09T05:44:04.408Z,98821.13
2022-10-09T05:46:09.559Z,98819.34
2022-10-09T05:48:12.726Z,98824.53
2022-10-09T05:50:15.856Z,98824.47
2022-10-09T05:52:20.160Z,98819.34
2022-10-09T05:54:23.166Z,98816.66
2022-10-09T05:56:27.334Z,98819.13
2022-10-09T05:58:30.237Z,98821.56
2022-10-09T06:00:33.321Z,98820.34
2022-10-09T06:02:36.371Z,98815.47
2022-10-09T06:04:39.461Z,98816.47
2022-10-09T06:06:42.874Z,98822.59
2022-10-09T06:08:47.531Z,98811.16
2022-10-09T06:10:50.438Z,98820.53
2022-10-09T06:12:53.374Z,98827.91
2022-10-09T06:14:56.325Z,98818.28
2022-10-09T06:17:01.423Z,98825.97
2022-10-09T06:19:05.457Z,98834.63
2022-10-09T06:21:08.786Z,98831.94
2022-10-09T06:23:11.801Z,98834.44
2022-10-09T06:25:16.378Z,98837.88
2022-10-09T06:27:19.455Z,98834.75
2022-10-09T06:29:22.646Z,98836.09
2022-10-09T06:31:27.640Z,98847.56
2022-10-09T06:33:32.715Z,98849.06
2022-10-09T06:35:35.813Z,98846.91
2022-10-09T06:37:38.787Z,98859.97
2022-10-09T06:39:41.819Z,98850.34
2022-10-09T06:41:46.247Z,98847.06
2022-10-09T06:44:17.375Z,98852.38
2022-10-09T06:46:21.432Z,98852.75
2022-10-09T06:48:24.616Z,98853.94
2022-10-09T06:50:27.982Z,98853.34
2022-10-09T06:52:31.060Z,98863.38
2022-10-09T06:54:34.251Z,98867.69
2022-10-09T06:56:37.265Z,98860.56
2022-10-09T06:58:42.012Z,98864.41
2022-10-09T07:00:44.961Z,98866.69
2022-10-09T07:02:48.334Z,98866.09
2022-10-09T07:04:51.503Z,98859.72
2022-10-09T07:06:54.807Z,98866.50
2022-10-09T07:09:00.295Z,98868.41
2022-10-09T07:11:09.681Z,98870.50
2022-10-09T07:13:12.779Z,98867.47
2022-10-09T07:15:17.131Z,98867.38
2022-10-09T07:17:20.087Z,98862.09
2022-10-09T07:19:23.136Z,98865.28
2022-10-09T07:21:26.378Z,98859.34
2022-10-09T07:23:29.616Z,98863.66
2022-10-09T07:25:32.557Z,98870.69
2022-10-09T07:27:36.176Z,98869.91
2022-10-09T07:29:39.699Z,98871.44
2022-10-09T07:31:44.492Z,98872.75
2022-10-09T07:33:48.366Z,98874.16
2022-10-09T07:35:55.342Z,98877.44
2022-10-09T07:37:58.336Z,98884.13
2022-10-09T07:40:01.324Z,98877.59
2022-10-09T07:42:04.804Z,98874.31
2022-10-09T07:44:07.783Z,98874.69
2022-10-09T07:46:13.768Z,98874.84
2022-10-09T07:48:19.316Z,98869.34
2022-10-09T07:50:22.294Z,98867.66
2022-10-09T07:52:25.364Z,98871.88
2022-10-09T07:54:28.321Z,98862.66
2022-10-09T07:56:33.038Z,98866.84
2022-10-09T07:58:36.173Z,98867.69
2022-10-09T08:00:39.307Z,98854.53
2022-10-09T08:02:42.367Z,98868.28
2022-10-09T08:04:46.821Z,98854.41
2022-10-09T08:06:49.816Z,98856.34
2022-10-09T08:08:54.360Z,98864.44
2022-10-09T08:10:57.354Z,98865.66
2022-10-09T08:13:00.367Z,98857.69
2022-10-09T08:15:03.267Z,98851.53
2022-10-09T08:17:06.362Z,98862.19
2022-10-09T08:19:10.537Z,98856.56
2022-10-09T08:21:16.444Z,98856.44
2022-10-09T08:23:19.477Z,98854.84
2022-10-09T08:25:22.539Z,98857.84
2022-10-09T08:27:25.572Z,98853.31
2022-10-09T08:29:28.613Z,98853.75
2022-10-09T08:31:32.648Z,98854.22
2022-10-09T08:33:35.673Z,98848.38
2022-10-09T08:35:40.543Z,98850.91
2022-10-09T08:37:46.179Z,98850.91
2022-10-09T08:39:49.180Z,98848.94
2022-10-09T08:41:54.292Z,98844.38
2022-10-09T08:44:01.810Z,98844.66
2022-10-09T08:46:09.214Z,98840.34
2022-10-09T08:48:15.826Z,98839.53
2022-10-09T08:50:22.976Z,98835.91
2022-10-09T08:52:34.519Z,98842.97
2022-10-09T08:54:40.530Z,98835.28
2022-10-09T08:56:43.536Z,98838.59
2022-10-09T08:58:46.684Z,98830.94
2022-10-09T09:00:51.885Z,98834.97
2022-10-09T09:03:20.974Z,98831.59
2022-10-09T09:05:32.165Z,98821.44
2022-10-09T09:07:41.733Z,98825.56
2022-10-09T09:09:54.160Z,98826.00
2022-10-09T09:12:02.028Z,98825.19
2022-10-09T09:14:19.860Z,98820.41
2022-10-09T09:16:29.039Z,98825.38
2022-10-09T09:18:42.686Z,98813.75
2022-10-09T09:20:52.934Z,98819.78
2022-10-09T09:22:58.098Z,98815.84
2022-10-09T09:25:03.460Z,98812.56
2022-10-09T09:27:12.834Z,98817.84
2022-10-09T09:29:17.247Z,98809.69
2022-10-09T09:31:24.314Z,98810.38
2022-10-09T09:33:37.310Z,98817.84
2022-10-09T09:35:49.499Z,98809.91
2022-10-09T09:37:52.516Z,98811.72
2022-10-09T09:40:34.788Z,98802.31
2022-10-09T09:42:21.847Z,98805.06
2022-10-09T09:44:26.730Z,98806.63
2022-10-09T09:46:31.333Z,98799.31
2022-10-09T09:48:36.422Z,98797.13
2022-10-09T09:50:50.441Z,98784.41
2022-10-09T09:53:02.977Z,98786.38
2022-10-09T09:55:06.919Z,98777.66
2022-10-09T09:57:17.024Z,98776.00
2022-10-09T09:59:37.286Z,98774.22
2022-10-09T10:01:40.461Z,98772.94
2022-10-09T10:03:50.890Z,98769.59
2022-10-09T10:05:54.225Z,98761.69
2022-10-09T10:07:57.618Z,98758.06
2022-10-09T10:10:08.196Z,98757.88
2022-10-09T10:12:17.740Z,98762.38
2022-10-09T10:14:20.808Z,98754.22
2022-10-09T10:16:27.182Z,98753.81
2022-10-09T10:18:33.390Z,98749.50
2022-10-09T10:20:44.593Z,98751.06
2022-10-09T10:22:52.899Z,98750.13
2022-10-09T10:24:58.065Z,98747.09
2022-10-09T10:27:04.920Z,98736.28
2022-10-09T10:29:13.361Z,98742.56
2022-10-09T10:31:27.082Z,98738.16
2022-10-09T10:33:34.463Z,98742.88
2022-10-09T10:35:39.851Z,98731.88
2022-10-09T10:37:46.685Z,98733.28
2022-10-09T10:39:52.187Z,98731.03
2022-10-09T10:41:58.578Z,98720.44
2022-10-09T10:44:09.200Z,98715.03
2022-10-09T10:46:18.829Z,98709.31
2022-10-09T10:48:24.655Z,98709.63
2022-10-09T10:50:36.253Z,98707.56
2022-10-09T10:52:47.216Z,98717.81
2022-10-09T10:54:53.753Z,98703.59
2022-10-09T10:57:03.110Z,98708.88
2022-10-09T10:59:20.902Z,98705.56
2022-10-09T11:01:31.394Z,98700.19
2022-10-09T11:03:44.031Z,98693.13
2022-10-09T11:05:51.702Z,98692.94
2022-10-09T11:08:03.999Z,98697.25
2022-10-09T11:10:12.978Z,98693.97
2022-10-09T11:12:43.237Z,98685.78
2022-10-09T11:14:49.844Z,98684.16
2022-10-09T11:17:01.612Z,98689.28
2022-10-09T11:19:18.457Z,98682.19
2022-10-09T11:21:39.142Z,98685.81
2022-10-09T11:24:01.091Z,98683.59
2022-10-09T11:26:13.101Z,98679.84
2022-10-09T11:28:17.131Z,98666.78
2022-10-09T11:30:20.312Z,98674.84
2022-10-09T11:32:25.651Z,98671.09
2022-10-09T11:34:33.319Z,98666.78
2022-10-09T11:36:41.532Z,98667.94
2022-10-09T11:38:47.467Z,98656.56
2022-10-09T11:40:50.612Z,98652.53
2022-10-09T11:42:59.737Z,98657.97
2022-10-09T11:45:10.426Z,98647.94
2022-10-09T11:47:21.873Z,98640.81
2022-10-09T11:49:27.635Z,98638.31
2022-10-09T11:51:35.191Z,98624.53
2022-10-09T11:53:40.416Z,98628.84
2022-10-09T11:55:43.898Z,98630.97
2022-10-09T11:57:47.383Z,98628.34
2022-10-09T11:59:50.603Z,98625.41
2022-10-09T12:01:53.813Z,98611.94
2022-10-09T12:04:02.082Z,98613.19
2022-10-09T12:06:09.317Z,98609.84
2022-10-09T12:08:18.342Z,98597.84
2022-10-09T12:10:27.736Z,98594.69
2022-10-09T12:12:33.950Z,98595.94
2022-10-09T12:14:38.942Z,98590.13
2022-10-09T12:16:43.997Z,98589.97
2022-10-09T12:18:48.140Z,98580.22
2022-10-09T12:20:52.068Z,98581.63
2022-10-09T12:23:21.889Z,98575.66
2022-10-09T12:25:27.543Z,98570.09
2022-10-09T12:27:33.521Z,98565.91
2022-10-09T12:29:42.016Z,98562.72
2022-10-09T12:31:45.122Z,98564.09
2022-10-09T12:33:51.080Z,98567.84
2022-10-09T12:36:02.336Z,98550.31
2022-10-09T12:38:17.165Z,98551.31
2022-10-09T12:40:24.365Z,98553.97
2022-10-09T12:42:28.756Z,98547.81
2022-10-09T12:44:33.655Z,98548.53
2022-10-09T12:46:38.621Z,98546.72
2022-10-09T12:48:45.793Z,98547.53
2022-10-09T12:50:49.254Z,98547.44
2022-10-09T12:52:54.934Z,98543.84
2022-10-09T12:54:57.925Z,98539.22
2022-10-09T12:57:01.964Z,98544.38
2022-10-09T12:59:07.651Z,98539.66
2022-10-09T13:01:14.438Z,98534.66
2022-10-09T13:03:24.423Z,98528.53
2022-10-09T13:05:37.047Z,98530.59
2022-10-09T13:07:40.345Z,98534.50
2022-10-09T13:09:43.443Z,98527.94
2022-10-09T13:11:47.278Z,98523.53
2022-10-09T13:13:51.178Z,98512.81
2022-10-09T13:16:03.883Z,98521.69
2022-10-09T13:18:14.716Z,98517.38
2022-10-09T13:20:26.426Z,98509.19
2022-10-09T13:22:35.059Z,98519.19
2022-10-09T13:24:38.995Z,98511.41
2022-10-09T13:26:44.021Z,98510.59
2022-10-09T13:28:47.226Z,98504.50
2022-10-09T13:30:50.533Z,98504.19
2022-10-09T13:32:54.917Z,98507.53
2022-10-09T13:34:58.214Z,98506.13
2022-10-09T13:37:01.403Z,98504.63
2022-10-09T13:39:05.306Z,98489.22
2022-10-09T13:41:08.455Z,98495.16
2022-10-09T13:43:14.125Z,98497.53
2022-10-09T13:45:17.330Z,98497.38
2022-10-09T13:47:24.211Z,98494.75
2022-10-09T13:49:29.134Z,98495.56
2022-10-09T13:51:32.668Z,98495.72
2022-10-09T13:53:36.086Z,98488.66
2022-10-09T13:55:39.400Z,98484.31
2022-10-09T13:57:42.408Z,98479.31
2022-10-09T13:59:45.661Z,98477.66
2022-10-09T14:01:48.885Z,98474.91
2022-10-09T14:03:51.965Z,98466.69
2022-10-09T14:06:00.270Z,98463.06
2022-10-09T14:08:03.277Z,98462.81
2022-10-09T14:10:07.312Z,98461.56
2022-10-09T14:12:10.336Z,98457.13
2022-10-09T14:14:13.294Z,98450.84
2022-10-09T14:16:16.527Z,98454.75
2022-10-09T14:18:19.813Z,98445.16
2022-10-09T14:20:25.073Z,98442.78
2022-10-09T14:22:29.525Z,98437.91
2022-10-09T14:24:32.636Z,98440.13
2022-10-09T14:26:35.682Z,98445.56
2022-10-09T14:28:39.408Z,98428.91
2022-10-09T14:30:42.665Z,98431.28
2022-10-09T14:32:45.803Z,98422.38
2022-10-09T14:34:48.990Z,98429.50
2022-10-09T14:36:52.421Z,98422.53
2022-10-09T14:38:57.208Z,98418.22
2022-10-09T14:41:00.523Z,98418.81
2022-10-09T14:43:03.554Z,98420.59
2022-10-09T14:45:07.377Z,98412.81
2022-10-09T14:47:10.417Z,98413.53
2022-10-09T14:49:13.565Z,98418.09
2022-10-09T14:51:18.131Z,98407.41
2022-10-09T14:53:21.299Z,98405.63
2022-10-09T14:55:26.208Z,98406.84
2022-10-09T14:57:32.986Z,98404.50
2022-10-09T14:59:38.374Z,98396.03
2022-10-09T15:01:41.490Z,98406.72
2022-10-09T15:03:44.930Z,98388.81
2022-10-09T15:05:48.164Z,98400.47
2022-10-09T15:07:51.534Z,98392.44
2022-10-09T15:09:55.198Z,98388.00
2022-10-09T15:11:59.918Z,98389.25
2022-10-09T15:14:03.539Z,98392.03
2022-10-09T15:16:08.709Z,98390.38
2022-10-09T15:18:11.748Z,98387.88
2022-10-09T15:20:14.740Z,98379.81
2022-10-09T15:22:17.765Z,98386.75
2022-10-09T15:24:20.776Z,98381.50
2022-10-09T15:26:24.187Z,98375.63
2022-10-09T15:28:29.031Z,98383.97
2022-10-09T15:30:32.316Z,98369.28
2022-10-09T15:32:35.536Z,98367.88
2022-10-09T15:34:40.928Z,98370.50
2022-10-09T15:36:45.764Z,98367.19
2022-10-09T15:38:49.130Z,98362.19
2022-10-09T15:40:54.646Z,98357.44
2022-10-09T15:42:57.695Z,98359.22
2022-10-09T15:45:02.086Z,98350.78
2022-10-09T15:47:05.332Z,98355.50
2022-10-09T15:49:08.747Z,98345.91
2022-10-09T15:51:13.598Z,98346.88
2022-10-09T15:53:17.668Z,98346.19
2022-10-09T15:55:20.656Z,98354.22
2022-10-09T15:57:23.731Z,98347.28
2022-10-09T15:59:26.882Z,98339.78
2022-10-09T16:01:31.373Z,98337.44
2022-10-09T16:03:37.104Z,98342.03
2022-10-09T16:05:40.569Z,98335.06
2022-10-09T16:07:43.736Z,98328.28
2022-10-09T16:09:46.726Z,98333.97
2022-10-09T16:11:49.766Z,98337.16
2022-10-09T16:13:53.106Z,98329.53
2022-10-09T16:15:56.158Z,98331.47
2022-10-09T16:18:00.617Z,98333.38
2022-10-09T16:20:03.870Z,98324.94
2022-10-09T16:22:06.890Z,98322.56
2022-10-09T16:24:10.133Z,98321.28
2022-10-09T16:26:15.252Z,98326.84
2022-10-09T16:28:18.403Z,98321.84
2022-10-09T16:30:21.725Z,98317.84
2022-10-09T16:32:24.799Z,98316.44
2022-10-09T16:34:29.168Z,98319.06
2022-10-09T16:36:32.357Z,98314.75
2022-10-09T16:38:35.442Z,98323.91
2022-10-09T16:43:07.576Z,98325.66
2022-10-09T16:45:12.130Z,98321.88
2022-10-09T16:47:15.506Z,98323.78
2022-10-09T16:49:21.503Z,98327.94
2022-10-09T16:51:31.563Z,98329.16
2022-10-09T16:53:34.745Z,98330.25
2022-10-09T16:55:37.924Z,98335.09
2022-10-09T16:57:41.005Z,98333.81
2022-10-09T16:59:44.326Z,98326.72
2022-10-09T17:01:49.542Z,98326.13
2022-10-09T17:03:54.566Z,98323.88
2022-10-09T17:05:57.554Z,98335.66
2022-10-09T17:08:02.101Z,98333.28
2022-10-09T17:10:05.938Z,98336.16
2022-10-09T17:12:11.297Z,98339.31
2022-10-09T17:14:14.938Z,98339.56
2022-10-09T17:16:20.060Z,98336.50
2022-10-09T17:18:23.458Z,98339.91
2022-10-09T17:20:26.552Z,98334.91
2022-10-09T17:22:29.601Z,98336.94
2022-10-09T17:24:34.342Z,98346.63
2022-10-09T17:26:37.403Z,98332.06
2022-10-09T17:28:41.258Z,98338.03
2022-10-09T17:30:44.412Z,98331.50
2022-10-09T17:32:47.911Z,98331.63
2022-10-09T17:34:52.049Z,98337.81
2022-10-09T17:36:55.167Z,98337.81
2022-10-09T17:38:58.492Z,98337.13
2022-10-09T17:41:05.813Z,98334.06
2022-10-09T17:43:09.229Z,98335.00
2022-10-09T17:45:12.462Z,98338.63
2022-10-09T17:47:15.470Z,98334.78
2022-10-09T17:49:18.572Z,98340.28
2022-10-09T17:51:23.927Z,98329.47
2022-10-09T17:53:27.345Z,98328.84
2022-10-09T17:55:31.141Z,98336.84
2022-10-09T17:57:35.644Z,98331.03
2022-10-09T17:59:38.903Z,98321.03
2022-10-09T18:01:42.062Z,98327.47
2022-10-09T18:03:45.602Z,98319.16
2022-10-09T18:05:50.316Z,98323.69
2022-10-09T18:07:53.544Z,98321.31
2022-10-09T18:09:56.709Z,98313.56
2022-10-09T18:11:59.922Z,98324.69
2022-10-09T18:14:04.891Z,98322.56
2022-10-09T18:16:08.871Z,98315.63
2022-10-09T18:18:12.401Z,98316.84
2022-10-09T18:20:15.618Z,98314.22
2022-10-09T18:22:18.743Z,98311.00
2022-10-09T18:24:22.062Z,98319.00
2022-10-09T18:26:25.152Z,98314.97
2022-10-09T18:30:41.655Z,98317.25
2022-10-09T18:32:44.984Z,98307.81
2022-10-09T18:34:48.167Z,98307.94
2022-10-09T18:36:52.245Z,98304.75
2022-10-09T18:38:56.514Z,98305.94
2022-10-09T18:40:59.782Z,98308.69
2022-10-09T18:43:03.108Z,98305.22
2022-10-09T18:45:07.375Z,98295.81
2022-10-09T18:47:14.627Z,98307.25
2022-10-09T18:49:19.515Z,98306.53
2022-10-09T18:51:24.840Z,98306.19
2022-10-09T18:53:28.268Z,98300.47
2022-10-09T18:55:31.412Z,98296.88
2022-10-09T18:57:34.669Z,98290.69
2022-10-09T18:59:38.495Z,98294.16
2022-10-09T19:01:41.828Z,98290.94
2022-10-09T19:03:49.957Z,98291.88
2022-10-09T19:05:53.624Z,98283.19
2022-10-09T19:07:56.731Z,98282.09
2022-10-09T19:09:59.808Z,98287.56
2022-10-09T19:12:02.882Z,98273.72
2022-10-09T19:14:06.142Z,98280.56
2022-10-09T19:16:09.895Z,98285.91
2022-10-09T19:18:13.018Z,98286.84
2022-10-09T19:20:17.719Z,98287.81
2022-10-09T19:22:23.937Z,98288.06
2022-10-09T19:24:30.037Z,98285.69
2022-10-09T19:26:36.685Z,98295.31
2022-10-09T19:28:41.375Z,98286.63
2022-10-09T19:30:45.393Z,98285.81
2022-10-09T19:32:48.970Z,98297.13
2022-10-09T19:34:52.593Z,98296.28
2022-10-09T19:36:57.038Z,98292.81
2022-10-09T19:39:00.260Z,98295.56
2022-10-09T19:41:07.880Z,98292.34
2022-10-09T19:43:11.064Z,98289.84
2022-10-09T19:45:14.309Z,98292.22
2022-10-09T19:47:18.956Z,98294.16
2022-10-09T19:49:21.966Z,98285.53
2022-10-09T19:51:26.962Z,98291.75
2022-10-09T19:53:31.578Z,98294.28
2022-10-09T19:55:35.115Z,98294.50
2022-10-09T19:57:38.516Z,98291.88
2022-10-09T19:59:41.666Z,98288.41
2022-10-09T20:01:44.778Z,98289.25
2022-10-09T20:03:48.935Z,98285.91
2022-10-09T20:05:52.141Z,98284.13
2022-10-09T20:07:55.210Z,98291.16
2022-10-09T20:09:59.577Z,98285.09
2022-10-09T20:12:02.759Z,98287.94
2022-10-09T20:14:05.968Z,98289.84
2022-10-09T20:16:11.518Z,98285.69
2022-10-09T20:18:14.560Z,98279.97
2022-10-09T20:20:17.721Z,98287.09
2022-10-09T20:22:20.794Z,98279.34
2022-10-09T20:24:24.774Z,98279.34
2022-10-09T20:26:29.788Z,98283.88
2022-10-09T20:28:33.472Z,98282.47
2022-10-09T20:30:36.570Z,98286.38
2022-10-09T20:32:39.612Z,98279.22
2022-10-09T20:34:42.722Z,98276.97
2022-10-09T20:36:45.745Z,98276.59
2022-10-09T20:38:48.912Z,98271.94
2022-10-09T20:40:52.169Z,98272.28
2022-10-09T20:42:56.719Z,98274.44
2022-10-09T20:44:59.783Z,98279.16
2022-10-09T20:47:02.917Z,98274.38
2022-10-09T20:49:08.643Z,98279.97
2022-10-09T20:51:11.739Z,98275.19
2022-10-09T20:53:15.608Z,98276.63
2022-10-09T20:55:18.739Z,98270.13
2022-10-09T20:57:21.808Z,98270.59
2022-10-09T20:59:26.587Z,98266.44
2022-10-09T21:01:30.099Z,98263.06
2022-10-09T21:03:33.341Z,98267.59
2022-10-09T21:05:41.165Z,98266.25
2022-10-09T21:07:44.762Z,98262.31
2022-10-09T21:09:47.837Z,98268.50
2022-10-09T21:11:51.033Z,98270.72
2022-10-09T21:13:54.384Z,98268.34
2022-10-09T21:15:58.817Z,98264.25
2022-10-09T21:18:01.827Z,98267.97
2022-10-09T21:20:05.064Z,98270.78
2022-10-09T21:22:08.673Z,98278.00
2022-10-09T21:24:11.803Z,98273.22
2022-10-09T21:26:15.854Z,98278.66
2022-10-09T21:28:19.422Z,98279.00
2022-10-09T21:30:22.502Z,98275.66
2022-10-09T21:32:27.068Z,98270.88
2022-10-09T21:34:30.044Z,98277.03
2022-10-09T21:36:47.131Z,98274.66
2022-10-09T21:39:01.578Z,98275.81
2022-10-09T21:41:04.827Z,98271.53
2022-10-09T21:43:07.970Z,98263.91
2022-10-09T21:45:12.338Z,98270.09
2022-10-09T21:47:18.445Z,98274.56
2022-10-09T21:49:24.826Z,98261.72
2022-10-09T21:51:28.096Z,98259.44
2022-10-09T21:53:31.116Z,98262.06
2022-10-09T21:55:34.130Z,98268.84
2022-10-09T21:57:37.186Z,98273.16
2022-10-09T21:59:40.709Z,98266.13
2022-10-09T22:01:43.717Z,98271.47
2022-10-09T22:03:47.112Z,98271.47
2022-10-09T22:05:51.553Z,98266.97
2022-10-09T22:07:54.502Z,98269.34
2022-10-09T22:09:57.817Z,98267.59
2022-10-09T22:12:01.259Z,98270.22
2022-10-09T22:14:05.502Z,98272.94
2022-10-09T22:16:10.023Z,98271.16
2022-10-09T22:18:13.407Z,98276.16
2022-10-09T22:20:16.524Z,98266.53
2022-10-09T22:22:23.724Z,98267.28
2022-10-09T22:24:29.181Z,98272.38
2022-10-09T22:26:32.467Z,98264.44
2022-10-09T22:28:36.388Z,98263.38
2022-10-09T22:30:39.386Z,98267.53
2022-10-09T22:32:42.438Z,98253.63
2022-10-09T22:34:45.428Z,98256.97
2022-10-09T22:36:48.511Z,98252.56
2022-10-09T22:38:53.925Z,98244.84
2022-10-09T22:41:04.043Z,98243.16
2022-10-09T22:43:07.075Z,98245.78
2022-10-09T22:45:10.894Z,98245.06
2022-10-09T22:47:13.899Z,98247.69
2022-10-09T22:49:17.661Z,98249.13
2022-10-09T22:51:22.968Z,98239.63
2022-10-09T22:53:25.969Z,98245.16
2022-10-09T22:55:30.286Z,98232.31
2022-10-09T22:57:33.356Z,98226.88
2022-10-09T22:59:36.388Z,98237.94
2022-10-09T23:01:41.198Z,98233.56
2022-10-09T23:03:44.313Z,98236.78
2022-10-09T23:05:47.356Z,98229.75
2022-10-09T23:07:50.406Z,98223.47
2022-10-09T23:09:53.377Z,98231.09
2022-10-09T23:11:58.690Z,98227.78
2022-10-09T23:14:01.930Z,98223.38
2022-10-09T23:16:06.873Z,98229.31
2022-10-09T23:18:09.946Z,98233.84
2022-10-09T23:20:12.859Z,98221.69
2022-10-09T23:22:15.960Z,98226.00
2022-10-09T23:24:18.868Z,98228.00
2022-10-09T23:26:23.369Z,98225.72
2022-10-09T23:28:27.961Z,98224.03
2022-10-09T23:30:31.796Z,98218.22
2022-10-09T23:32:34.743Z,98222.81
2022-10-09T23:34:37.757Z,98216.97
2022-10-09T23:36:40.693Z,98215.44
2022-10-09T23:38:44.032Z,98220.97
2022-10-09T23:40:55.816Z,98227.97
2022-10-09T23:42:58.809Z,98217.72
2022-10-09T23:45:03.408Z,98226.53
2022-10-09T23:47:06.461Z,98224.97
2022-10-09T23:49:09.455Z,98220.78
2022-10-09T23:51:13.985Z,98220.78
2022-10-09T23:53:17.265Z,98213.91
2022-10-09T23:55:20.243Z,98219.97
2022-10-09T23:57:23.364Z,98219.97
2022-10-09T23:59:26.486Z,98216.63
